createdAt,value
2022-08-12T00:02:03.249Z,24.95
2022-08-12T00:04:58.203Z,25.11
2022-08-12T00:08:28.923Z,25.21
2022-08-12T00:11:47.536Z,25.19
2022-08-12T00:15:11.660Z,25.19
2022-08-12T00:18:37.818Z,25.23
2022-08-12T00:22:01.227Z,25.24
2022-08-12T00:26:05.409Z,25.16
2022-08-12T00:28:51.118Z,25.27
2022-08-12T00:32:35.325Z,25.23
2022-08-12T00:35:44.437Z,25.42
2022-08-12T00:39:09.474Z,25.33
2022-08-12T00:42:17.449Z,25.44
2022-08-12T00:45:22.986Z,25.22
2022-08-12T00:48:28.284Z,25.21
2022-08-12T00:51:38.358Z,25.15
2022-08-12T00:54:43.578Z,24.95
2022-08-12T00:57:50.769Z,25.01
2022-08-12T01:00:56.865Z,25.18
2022-08-12T01:04:20.152Z,25.06
2022-08-12T01:07:43.952Z,25.18
2022-08-12T01:11:11.085Z,25.26
2022-08-12T01:14:11.917Z,25.35
2022-08-12T01:17:17.619Z,25.32
2022-08-12T01:20:22.907Z,25.25
2022-08-12T01:23:40.875Z,25.23
2022-08-12T01:26:46.704Z,25.37
2022-08-12T01:29:58.490Z,25.38
2022-08-12T01:33:05.217Z,25.23
2022-08-12T01:36:13.518Z,25.08
2022-08-12T01:39:18.993Z,24.97
2022-08-12T01:42:18.351Z,24.76
2022-08-12T01:45:11.277Z,24.49
2022-08-12T01:48:41.136Z,24.33
2022-08-12T01:52:20.361Z,24.11
2022-08-12T01:54:56.061Z,23.97
2022-08-12T01:58:01.037Z,23.83
2022-08-12T02:01:18.372Z,23.65
2022-08-12T02:05:10.731Z,23.36
2022-08-12T02:09:11.329Z,23.39
2022-08-12T02:12:41.872Z,23.38
2022-08-12T02:16:18.615Z,23.32
2022-08-12T02:19:50.861Z,23.32
2022-08-12T02:22:58.241Z,23.40
2022-08-12T02:26:03.801Z,23.44
2022-08-12T02:29:09.271Z,23.49
2022-08-12T02:32:15.654Z,23.45
2022-08-12T02:35:27.098Z,23.37
2022-08-12T02:38:34.275Z,23.26
2022-08-12T02:41:40.060Z,23.24
2022-08-12T02:44:50.733Z,23.01
2022-08-12T02:47:59.688Z,23.00
2022-08-12T02:51:08.052Z,23.02
2022-08-12T02:54:16.426Z,23.03
2022-08-12T02:57:23.866Z,23.16
2022-08-12T03:00:29.557Z,23.20
2022-08-12T03:03:34.911Z,23.23
2022-08-12T03:06:42.817Z,23.23
2022-08-12T03:10:04.384Z,23.18
2022-08-12T03:13:01.442Z,23.13
2022-08-12T03:16:08.462Z,23.25
2022-08-12T03:19:13.741Z,23.11
2022-08-12T03:22:21.810Z,23.15
2022-08-12T03:25:41.134Z,23.16
2022-08-12T03:29:05.255Z,23.21
2022-08-12T03:32:35.915Z,23.16
2022-08-12T03:35:40.066Z,23.18
2022-08-12T03:38:30.566Z,23.29
2022-08-12T03:41:43.388Z,23.29
2022-08-12T03:45:22.994Z,23.19
2022-08-12T03:48:46.501Z,23.06
2022-08-12T03:52:10.259Z,22.94
2022-08-12T03:55:34.365Z,23.11
2022-08-12T03:58:58.528Z,23.21
2022-08-12T04:02:05.774Z,23.25
2022-08-12T04:05:11.433Z,23.20
2022-08-12T04:08:18.394Z,23.17
2022-08-12T04:11:46.951Z,23.15
2022-08-12T04:14:48.492Z,23.18
2022-08-12T04:18:07.398Z,23.29
2022-08-12T04:21:01.947Z,23.30
2022-08-12T04:24:07.566Z,23.33
2022-08-12T04:27:15.565Z,23.35
2022-08-12T04:30:32.529Z,23.33
2022-08-12T04:33:28.612Z,23.32
2022-08-12T04:36:33.412Z,23.40
2022-08-12T04:39:41.320Z,23.20
2022-08-12T04:42:48.191Z,23.25
2022-08-12T04:45:56.506Z,23.21
2022-08-12T04:49:02.699Z,23.22
2022-08-12T04:52:10.437Z,23.19
2022-08-12T04:55:18.590Z,23.18
2022-08-12T04:58:29.445Z,23.19
2022-08-12T05:01:33.671Z,23.18
2022-08-12T05:04:39.252Z,23.18
2022-08-12T05:07:47.821Z,23.25
2022-08-12T05:10:53.128Z,23.32
2022-08-12T05:13:59.002Z,23.39
2022-08-12T05:17:07.626Z,23.52
2022-08-12T05:20:14.500Z,23.55
2022-08-12T05:23:25.999Z,23.60
2022-08-12T05:26:32.411Z,23.55
2022-08-12T05:30:06.371Z,23.55
2022-08-12T05:32:45.467Z,23.60
2022-08-12T05:35:54.382Z,23.59
2022-08-12T05:39:04.454Z,23.53
2022-08-12T05:42:11.796Z,23.58
2022-08-12T05:45:11.142Z,23.66
2022-08-12T05:47:57.797Z,23.77
2022-08-12T05:50:51.273Z,23.82
2022-08-12T05:53:39.339Z,23.90
2022-08-12T05:56:34.324Z,23.91
2022-08-12T05:59:28.028Z,23.92
2022-08-12T06:02:33.466Z,23.93
2022-08-12T06:05:51.862Z,23.93
2022-08-12T06:08:50.691Z,23.89
2022-08-12T06:12:04.441Z,23.79
2022-08-12T06:15:05.203Z,23.78
2022-08-12T06:18:20.039Z,23.75
2022-08-12T06:21:27.992Z,23.75
2022-08-12T06:24:34.943Z,23.69
2022-08-12T06:27:40.632Z,23.66
2022-08-12T06:31:08.298Z,23.70
2022-08-12T06:33:59.668Z,23.68
2022-08-12T06:37:02.591Z,23.73
2022-08-12T06:40:08.744Z,23.81
2022-08-12T06:43:14.499Z,23.84
2022-08-12T06:46:13.385Z,23.91
2022-08-12T06:49:07.617Z,24.02
2022-08-12T06:52:14.651Z,24.14
2022-08-12T06:55:22.132Z,24.25
2022-08-12T06:58:28.377Z,24.40
2022-08-12T07:01:36.738Z,24.46
2022-08-12T07:04:43.947Z,24.61
2022-08-12T07:07:51.868Z,24.71
2022-08-12T07:11:09.059Z,24.80
2022-08-12T07:14:16.480Z,24.92
2022-08-12T07:17:22.768Z,25.05
2022-08-12T07:20:51.213Z,25.11
2022-08-12T07:23:35.479Z,25.35
2022-08-12T07:26:44.266Z,25.51
2022-08-12T07:30:02.655Z,25.69
2022-08-12T07:33:01.788Z,25.76
2022-08-12T07:36:06.726Z,25.92
2022-08-12T07:39:11.507Z,26.05
2022-08-12T07:42:17.988Z,26.38
2022-08-12T07:45:24.305Z,25.94
2022-08-12T07:48:29.604Z,26.09
2022-08-12T07:51:37.163Z,26.23
2022-08-12T07:54:43.628Z,26.46
2022-08-12T07:57:49.571Z,26.65
2022-08-12T08:00:56.774Z,26.91
2022-08-12T08:04:24.415Z,27.12
2022-08-12T08:07:29.386Z,27.20
2022-08-12T08:10:35.521Z,27.30
2022-08-12T08:13:43.219Z,27.42
2022-08-12T08:16:51.251Z,27.63
2022-08-12T08:20:03.894Z,27.72
2022-08-12T08:23:08.145Z,27.83
2022-08-12T08:26:13.492Z,27.76
2022-08-12T08:29:20.385Z,27.74
2022-08-12T08:32:26.226Z,27.80
2022-08-12T08:35:47.126Z,27.87
2022-08-12T08:38:40.289Z,27.84
2022-08-12T08:42:17.581Z,27.88
2022-08-12T08:45:14.124Z,27.98
2022-08-12T08:48:21.619Z,27.96
2022-08-12T08:51:28.850Z,27.94
2022-08-12T08:54:37.311Z,27.91
2022-08-12T08:57:44.735Z,27.96
2022-08-12T09:00:47.619Z,28.03
2022-08-12T09:05:09.714Z,28.18
2022-08-12T09:07:18.063Z,28.39
2022-08-12T09:10:23.417Z,28.39
2022-08-12T09:16:50.124Z,28.57
2022-08-12T09:19:58.332Z,28.73
2022-08-12T09:23:08.053Z,28.93
2022-08-12T09:26:09.780Z,28.95
2022-08-12T09:29:16.191Z,28.90
2022-08-12T09:32:56.237Z,28.79
2022-08-12T09:35:43.051Z,28.80
2022-08-12T09:38:58.933Z,28.98
2022-08-12T09:42:34.502Z,28.98
2022-08-12T09:46:06.281Z,28.96
2022-08-12T09:48:25.304Z,28.83
2022-08-12T09:51:37.743Z,28.77
2022-08-12T09:54:42.995Z,28.77
2022-08-12T09:58:44.983Z,28.91
2022-08-12T10:00:54.367Z,29.44
2022-08-12T10:04:04.541Z,29.40
2022-08-12T10:07:06.937Z,29.52
2022-08-12T10:10:23.007Z,29.70
2022-08-12T10:13:40.160Z,29.91
2022-08-12T10:16:48.478Z,30.01
2022-08-12T10:19:51.790Z,29.94
2022-08-12T10:22:56.130Z,29.94
2022-08-12T10:26:37.569Z,29.93
2022-08-12T10:30:38.040Z,30.03
2022-08-12T10:32:58.021Z,30.22
2022-08-12T10:36:07.046Z,30.35
2022-08-12T10:40:01.780Z,30.46
2022-08-12T10:42:46.308Z,30.56
2022-08-12T10:45:49.911Z,30.59
2022-08-12T10:49:05.596Z,30.63
2022-08-12T10:52:34.361Z,30.74
2022-08-12T10:55:13.063Z,30.69
2022-08-12T10:58:28.086Z,30.60
2022-08-12T11:04:17.210Z,30.52
2022-08-12T11:04:44.849Z,30.29
2022-08-12T11:08:36.639Z,30.32
2022-08-12T11:10:54.519Z,30.32
2022-08-12T11:14:00.129Z,30.37
2022-08-12T11:17:34.090Z,30.43
2022-08-12T11:20:15.198Z,30.29
2022-08-12T11:23:35.764Z,30.13
2022-08-12T11:26:27.114Z,29.98
2022-08-12T11:30:01.441Z,29.98
2022-08-12T11:32:41.310Z,29.82
2022-08-12T11:35:51.297Z,29.83
2022-08-12T11:38:58.119Z,29.85
2022-08-12T11:41:57.026Z,29.86
2022-08-12T11:45:05.084Z,29.89
2022-08-12T11:48:10.842Z,29.86
2022-08-12T11:51:17.930Z,29.86
2022-08-12T11:54:23.997Z,29.87
2022-08-12T11:58:19.670Z,29.89
2022-08-12T12:03:46.679Z,29.52
2022-08-12T12:06:53.423Z,29.52
2022-08-12T12:10:00.366Z,29.42
2022-08-12T12:13:11.627Z,29.16
2022-08-12T12:16:13.714Z,29.12
2022-08-12T12:19:20.545Z,29.09
2022-08-12T12:22:30.952Z,29.17
2022-08-12T12:25:59.216Z,29.16
2022-08-12T12:28:40.983Z,29.17
2022-08-12T12:32:11.814Z,29.29
2022-08-12T12:35:14.054Z,29.43
2022-08-12T12:38:12.379Z,29.40
2022-08-12T12:41:18.868Z,29.38
2022-08-12T12:44:25.786Z,29.38
2022-08-12T12:47:31.285Z,29.31
2022-08-12T12:50:45.279Z,29.17
2022-08-12T12:54:07.873Z,29.11
2022-08-12T12:56:56.416Z,29.07
2022-08-12T13:00:20.690Z,29.09
2022-08-12T13:03:29.937Z,29.24
2022-08-12T13:06:38.748Z,29.21
2022-08-12T13:09:46.796Z,29.16
2022-08-12T13:12:52.081Z,29.18
2022-08-12T13:15:59.411Z,29.14
2022-08-12T13:19:06.838Z,29.13
2022-08-12T13:22:26.265Z,28.91
2022-08-12T13:25:34.354Z,28.75
2022-08-12T13:28:42.983Z,28.52
2022-08-12T13:32:19.398Z,28.37
2022-08-12T13:35:03.903Z,28.28
2022-08-12T13:38:08.941Z,28.26
2022-08-12T13:41:14.005Z,28.23
2022-08-12T13:44:22.839Z,28.30
2022-08-12T13:47:28.750Z,28.35
2022-08-12T13:50:43.659Z,28.51
2022-08-12T13:53:57.700Z,28.55
2022-08-12T13:56:58.125Z,28.59
2022-08-12T14:00:04.083Z,28.66
2022-08-12T14:03:11.964Z,28.57
2022-08-12T14:06:22.017Z,28.43
2022-08-12T14:09:29.562Z,28.22
2022-08-12T14:12:36.905Z,27.97
2022-08-12T14:15:44.381Z,27.83
2022-08-12T14:18:52.014Z,27.83
2022-08-12T14:22:04.662Z,27.75
2022-08-12T14:25:08.629Z,27.72
2022-08-12T14:28:25.570Z,27.57
2022-08-12T14:31:32.575Z,27.44
2022-08-12T14:34:40.655Z,27.35
2022-08-12T14:37:56.407Z,27.33
2022-08-12T14:40:57.705Z,27.19
2022-08-12T14:44:57.312Z,27.18
2022-08-12T14:47:12.672Z,27.02
2022-08-12T14:50:40.841Z,26.92
2022-08-12T15:00:00.644Z,26.73
2022-08-12T15:02:59.920Z,26.67
2022-08-12T15:06:06.636Z,26.69
2022-08-12T15:08:54.864Z,26.65
2022-08-12T15:12:04.537Z,26.55
2022-08-12T15:15:13.862Z,26.54
2022-08-12T15:18:24.385Z,26.46
2022-08-12T15:22:36.763Z,26.45
2022-08-12T15:24:43.868Z,26.42
2022-08-12T15:28:04.260Z,26.36
2022-08-12T15:31:01.377Z,26.34
2022-08-12T15:34:07.738Z,26.32
2022-08-12T15:37:17.225Z,26.22
2022-08-12T15:40:30.269Z,26.15
2022-08-12T15:44:17.002Z,26.08
2022-08-12T15:46:43.836Z,26.06
2022-08-12T15:49:59.506Z,26.03
2022-08-12T15:52:58.414Z,25.97
2022-08-12T15:56:05.463Z,25.91
2022-08-12T15:59:10.949Z,25.85
2022-08-12T16:02:20.423Z,25.79
2022-08-12T16:06:12.931Z,25.79
2022-08-12T16:08:37.298Z,25.83
2022-08-12T16:11:45.007Z,25.80
2022-08-12T16:14:51.266Z,25.76
2022-08-12T16:18:17.925Z,25.69
2022-08-12T16:21:09.075Z,25.64
2022-08-12T16:24:14.838Z,25.64
2022-08-12T16:27:21.440Z,25.63
2022-08-12T16:30:29.377Z,25.56
2022-08-12T16:33:35.741Z,25.54
2022-08-12T16:36:47.396Z,25.50
2022-08-12T16:40:01.720Z,25.48
2022-08-12T16:43:02.152Z,25.45
2022-08-12T16:46:05.567Z,25.37
2022-08-12T16:48:47.059Z,25.47
2022-08-12T16:52:00.098Z,25.27
2022-08-12T16:55:05.404Z,25.26
2022-08-12T16:58:28.546Z,25.18
2022-08-12T17:01:19.729Z,25.10
2022-08-12T17:04:28.241Z,25.06
2022-08-12T17:07:36.477Z,25.01
2022-08-12T17:10:41.536Z,25.08
2022-08-12T17:13:53.117Z,24.98
2022-08-12T17:16:59.577Z,24.82
2022-08-12T17:20:34.893Z,24.78
2022-08-12T17:23:23.652Z,24.73
2022-08-12T17:26:32.888Z,24.65
2022-08-12T17:30:01.943Z,24.61
2022-08-12T17:32:53.302Z,24.55
2022-08-12T17:35:57.902Z,24.46
2022-08-12T17:39:04.779Z,24.39
2022-08-12T17:42:32.891Z,24.33
2022-08-12T17:45:18.471Z,24.23
2022-08-12T17:48:26.267Z,24.20
2022-08-12T17:51:49.858Z,24.19
2022-08-12T17:54:45.323Z,24.14
2022-08-12T17:57:52.905Z,24.12
2022-08-12T18:01:01.044Z,24.12
2022-08-12T18:04:22.863Z,24.21
2022-08-12T18:07:21.279Z,24.14
2022-08-12T18:10:53.130Z,24.10
2022-08-12T18:13:59.606Z,24.06
2022-08-12T18:17:10.033Z,24.03
2022-08-12T18:20:19.485Z,23.99
2022-08-12T18:23:25.190Z,23.93
2022-08-12T18:26:34.941Z,23.88
2022-08-12T18:29:43.221Z,23.79
2022-08-12T18:32:58.854Z,23.73
2022-08-12T18:36:02.864Z,23.65
2022-08-12T18:39:19.519Z,23.61
2022-08-12T18:42:25.414Z,23.60
2022-08-12T18:45:46.862Z,23.50
2022-08-12T18:48:52.465Z,23.45
2022-08-12T18:52:02.263Z,23.42
2022-08-12T18:55:08.342Z,23.44
2022-08-12T18:58:25.467Z,23.39
2022-08-12T19:02:19.389Z,23.37
2022-08-12T19:04:45.574Z,23.29
2022-08-12T19:08:04.379Z,23.25
2022-08-12T19:11:30.880Z,23.17
2022-08-12T19:14:40.499Z,23.13
2022-08-12T19:18:01.157Z,23.07
2022-08-12T19:21:11.679Z,22.94
2022-08-12T19:24:29.354Z,22.93
2022-08-12T19:27:37.026Z,22.95
2022-08-12T19:31:05.703Z,23.01
2022-08-12T19:34:47.031Z,22.92
2022-08-12T19:37:18.947Z,22.89
2022-08-12T19:40:31.251Z,22.83
2022-08-12T19:43:59.520Z,22.83
2022-08-12T19:46:51.884Z,22.80
2022-08-12T19:50:05.529Z,22.77
2022-08-12T19:53:12.870Z,22.75
2022-08-12T19:56:20.459Z,22.78
2022-08-12T19:59:43.477Z,22.80
2022-08-12T20:02:44.299Z,22.84
2022-08-12T20:06:04.594Z,22.88
2022-08-12T20:09:04.028Z,22.91
2022-08-12T20:12:18.047Z,22.99
2022-08-12T20:15:21.871Z,22.99
2022-08-12T20:18:52.927Z,23.03
2022-08-12T20:21:40.613Z,23.07
2022-08-12T20:24:46.291Z,23.11
2022-08-12T20:28:03.045Z,22.94
2022-08-12T20:30:59.388Z,23.00
2022-08-12T20:33:50.679Z,22.99
2022-08-12T20:36:57.320Z,23.06
2022-08-12T20:40:05.354Z,23.05
2022-08-12T20:43:12.822Z,23.06
2022-08-12T20:46:20.191Z,22.93
2022-08-12T20:49:25.101Z,23.05
2022-08-12T20:52:34.242Z,23.12
2022-08-12T20:55:56.583Z,23.22
2022-08-12T20:58:50.845Z,23.15
2022-08-12T21:01:56.876Z,22.71
2022-08-12T21:05:23.112Z,23.07
2022-08-12T21:08:28.685Z,23.09
2022-08-12T21:11:33.856Z,23.00
2022-08-12T21:14:53.447Z,23.03
2022-08-12T21:18:08.969Z,22.97
2022-08-12T21:20:59.441Z,22.87
2022-08-12T21:24:05.043Z,22.93
2022-08-12T21:27:11.636Z,22.85
2022-08-12T21:30:20.478Z,22.82
2022-08-12T21:33:30.797Z,22.85
2022-08-12T21:36:35.257Z,22.84
2022-08-12T21:39:41.317Z,22.84
2022-08-12T21:42:49.060Z,22.75
2022-08-12T21:46:01.657Z,22.71
2022-08-12T21:49:04.802Z,22.57
2022-08-12T21:52:10.892Z,22.48
2022-08-12T21:55:19.009Z,22.44
2022-08-12T21:58:27.820Z,22.40
2022-08-12T22:01:35.830Z,22.41
2022-08-12T22:04:52.706Z,22.33
2022-08-12T22:07:58.426Z,22.33
2022-08-12T22:11:04.300Z,22.19
2022-08-12T22:14:21.383Z,22.30
2022-08-12T22:17:21.592Z,22.27
2022-08-12T22:20:31.093Z,22.16
2022-08-12T22:24:04.135Z,22.08
2022-08-12T22:26:43.296Z,22.30
2022-08-12T22:30:06.910Z,22.20
2022-08-12T22:33:18.137Z,22.16
2022-08-12T22:36:29.076Z,22.20
2022-08-12T22:39:32.327Z,22.17
2022-08-12T22:42:40.519Z,22.17
2022-08-12T22:46:05.494Z,22.13
2022-08-12T22:49:10.960Z,22.13
2022-08-12T22:52:22.916Z,22.15
2022-08-12T22:56:00.522Z,22.12
2022-08-12T22:58:40.746Z,22.14
2022-08-12T23:02:01.453Z,22.13
2022-08-12T23:04:57.424Z,22.11
2022-08-12T23:08:04.317Z,22.07
2022-08-12T23:11:09.206Z,22.03
2022-08-12T23:14:10.607Z,22.04
2022-08-12T23:17:21.450Z,22.12
2022-08-12T23:20:19.762Z,22.17
2022-08-12T23:23:27.415Z,22.06
2022-08-12T23:26:52.227Z,21.99
2022-08-12T23:30:16.664Z,22.09
2022-08-12T23:33:13.416Z,22.10
2022-08-12T23:36:13.307Z,22.08
2022-08-12T23:40:13.158Z,22.18
2022-08-12T23:42:31.029Z,22.19
2022-08-12T23:45:34.685Z,22.23
2022-08-12T23:48:40.991Z,22.20
2022-08-12T23:51:49.628Z,22.20
2022-08-12T23:54:58.053Z,22.19
2022-08-12T23:58:21.413Z,22.31
